createdAt,value
2022-09-26T00:01:15.375Z,10.67
2022-09-26T00:03:50.811Z,10.73
2022-09-26T00:06:19.593Z,10.74
2022-09-26T00:08:48.342Z,10.64
2022-09-26T00:11:21.180Z,10.75
2022-09-26T00:13:51.744Z,10.85
2022-09-26T00:16:18.531Z,10.78
2022-09-26T00:18:49.167Z,10.85
2022-09-26T00:21:16.492Z,10.96
2022-09-26T00:23:43.999Z,10.87
2022-09-26T00:26:12.807Z,10.86
2022-09-26T00:28:40.563Z,10.93
2022-09-26T00:31:10.693Z,11.04
2022-09-26T00:33:37.906Z,10.93
2022-09-26T00:36:05.268Z,10.96
2022-09-26T00:38:32.947Z,10.87
2022-09-26T00:41:00.109Z,10.99
2022-09-26T00:43:41.384Z,10.82
2022-09-26T00:46:17.143Z,10.83
2022-09-26T00:48:48.207Z,10.95
2022-09-26T00:51:15.382Z,10.80
2022-09-26T00:53:47.059Z,10.96
2022-09-26T00:56:20.925Z,10.96
2022-09-26T00:59:00.196Z,10.98
2022-09-26T01:01:27.508Z,10.92
2022-09-26T01:03:54.723Z,10.97
2022-09-26T01:06:22.163Z,10.85
2022-09-26T01:08:57.261Z,10.85
2022-09-26T01:11:24.129Z,10.81
2022-09-26T01:13:52.828Z,10.90
2022-09-26T01:16:19.822Z,10.96
2022-09-26T01:18:47.937Z,10.90
2022-09-26T01:21:17.585Z,10.81
2022-09-26T01:23:44.273Z,10.77
2022-09-26T01:26:26.232Z,10.85
2022-09-26T01:29:08.438Z,10.78
2022-09-26T01:32:15.539Z,10.95
2022-09-26T01:34:56.293Z,10.92
2022-09-26T01:37:49.336Z,10.91
2022-09-26T01:40:27.646Z,10.79
2022-09-26T01:43:21.515Z,10.82
2022-09-26T01:46:03.326Z,10.80
2022-09-26T01:48:36.197Z,10.80
2022-09-26T01:51:12.237Z,10.80
2022-09-26T01:53:51.572Z,10.78
2022-09-26T01:56:23.155Z,10.75
2022-09-26T01:58:56.722Z,10.81
2022-09-26T02:01:28.114Z,10.81
2022-09-26T02:04:02.543Z,10.94
2022-09-26T02:06:53.845Z,10.83
2022-09-26T02:09:29.585Z,10.76
2022-09-26T02:12:02.105Z,10.84
2022-09-26T02:14:32.575Z,10.77
2022-09-26T02:17:09.168Z,10.79
2022-09-26T02:20:00.734Z,10.90
2022-09-26T02:22:32.042Z,10.89
2022-09-26T02:24:58.825Z,10.93
2022-09-26T02:27:26.873Z,10.84
2022-09-26T02:29:54.750Z,10.80
2022-09-26T02:32:28.258Z,10.86
2022-09-26T02:34:56.581Z,10.91
2022-09-26T02:37:24.626Z,10.75
2022-09-26T02:39:53.258Z,10.83
2022-09-26T02:42:36.641Z,10.84
2022-09-26T02:45:34.071Z,10.84
2022-09-26T02:48:14.030Z,10.91
2022-09-26T02:50:48.203Z,11.00
2022-09-26T02:53:42.495Z,10.87
2022-09-26T02:56:27.561Z,10.95
2022-09-26T02:59:21.596Z,10.91
2022-09-26T03:02:02.600Z,10.92
2022-09-26T03:04:29.255Z,10.92
2022-09-26T03:07:00.758Z,11.06
2022-09-26T03:09:30.328Z,11.04
2022-09-26T03:12:00.195Z,10.88
2022-09-26T03:14:29.131Z,10.95
2022-09-26T03:16:56.400Z,10.96
2022-09-26T03:19:32.452Z,10.94
2022-09-26T03:22:00.025Z,11.00
2022-09-26T03:24:28.344Z,10.84
2022-09-26T03:26:56.197Z,10.94
2022-09-26T03:29:25.191Z,11.00
2022-09-26T03:31:52.321Z,10.87
2022-09-26T03:34:19.461Z,10.98
2022-09-26T03:36:46.334Z,10.98
2022-09-26T03:39:13.760Z,10.98
2022-09-26T03:41:43.131Z,11.02
2022-09-26T03:44:09.884Z,10.89
2022-09-26T03:46:40.078Z,10.87
2022-09-26T03:49:07.046Z,11.01
2022-09-26T03:51:34.044Z,10.93
2022-09-26T03:54:01.090Z,10.99
2022-09-26T03:56:28.025Z,10.85
2022-09-26T03:58:54.855Z,10.91
2022-09-26T04:01:22.993Z,10.78
2022-09-26T04:03:51.311Z,10.90
2022-09-26T04:06:20.540Z,10.85
2022-09-26T04:08:49.428Z,10.86
2022-09-26T04:11:19.695Z,10.75
2022-09-26T04:13:52.046Z,10.83
2022-09-26T04:16:20.642Z,10.82
2022-09-26T04:18:47.945Z,10.77
2022-09-26T04:21:15.699Z,10.92
2022-09-26T04:23:43.845Z,10.78
2022-09-26T04:26:14.271Z,10.86
2022-09-26T04:28:43.234Z,10.79
2022-09-26T04:31:10.915Z,10.85
2022-09-26T04:33:39.757Z,10.82
2022-09-26T04:36:12.378Z,10.82
2022-09-26T04:38:39.556Z,10.82
2022-09-26T04:41:14.368Z,10.84
2022-09-26T04:43:41.952Z,10.65
2022-09-26T04:46:11.593Z,10.85
2022-09-26T04:48:38.935Z,10.71
2022-09-26T04:51:11.559Z,10.62
2022-09-26T04:53:39.578Z,10.80
2022-09-26T04:56:09.417Z,10.73
2022-09-26T04:58:37.954Z,10.76
2022-09-26T05:01:07.478Z,10.74
2022-09-26T05:03:36.169Z,10.88
2022-09-26T05:06:05.944Z,10.74
2022-09-26T05:08:33.079Z,10.60
2022-09-26T05:10:59.891Z,10.80
2022-09-26T05:13:27.417Z,10.80
2022-09-26T05:15:55.688Z,10.64
2022-09-26T05:18:26.228Z,10.67
2022-09-26T05:20:54.395Z,10.76
2022-09-26T05:23:44.822Z,10.91
2022-09-26T05:26:20.400Z,10.67
2022-09-26T05:28:51.123Z,10.69
2022-09-26T05:31:19.268Z,10.72
2022-09-26T05:33:46.653Z,10.81
2022-09-26T05:36:13.895Z,10.86
2022-09-26T05:38:40.720Z,10.90
2022-09-26T05:41:07.546Z,10.90
2022-09-26T05:43:35.122Z,10.83
2022-09-26T05:46:07.745Z,10.80
2022-09-26T05:48:35.911Z,10.90
2022-09-26T05:51:10.951Z,11.04
2022-09-26T05:53:38.757Z,10.89
2022-09-26T05:56:06.492Z,10.98
2022-09-26T05:58:35.186Z,10.87
2022-09-26T06:01:06.819Z,10.92
2022-09-26T06:03:35.647Z,10.91
2022-09-26T06:06:10.343Z,11.12
2022-09-26T06:08:38.690Z,11.08
2022-09-26T06:11:30.919Z,11.06
2022-09-26T06:14:00.735Z,11.04
2022-09-26T06:16:28.820Z,11.12
2022-09-26T06:18:55.990Z,11.00
2022-09-26T06:21:23.672Z,11.14
2022-09-26T06:23:50.694Z,11.07
2022-09-26T06:26:26.277Z,11.14
2022-09-26T06:28:58.159Z,11.30
2022-09-26T06:31:26.268Z,11.22
2022-09-26T06:33:54.474Z,11.22
2022-09-26T06:36:24.664Z,11.26
2022-09-26T06:38:51.790Z,11.32
2022-09-26T06:41:19.513Z,11.38
2022-09-26T06:43:47.415Z,11.45
2022-09-26T06:46:16.112Z,11.53
2022-09-26T06:48:43.444Z,11.59
2022-09-26T06:51:14.294Z,11.65
2022-09-26T06:53:42.929Z,11.84
2022-09-26T06:56:09.680Z,11.99
2022-09-26T06:58:36.564Z,12.03
2022-09-26T07:01:03.911Z,11.87
2022-09-26T07:03:31.644Z,11.85
2022-09-26T07:05:58.736Z,12.11
2022-09-26T07:08:49.994Z,12.14
2022-09-26T07:11:35.028Z,12.12
2022-09-26T07:14:02.104Z,12.16
2022-09-26T07:16:29.763Z,12.30
2022-09-26T07:18:57.352Z,12.26
2022-09-26T07:21:24.043Z,12.45
2022-09-26T07:23:50.702Z,12.36
2022-09-26T07:26:17.424Z,12.38
2022-09-26T07:28:44.855Z,12.42
2022-09-26T07:31:11.910Z,12.59
2022-09-26T07:33:40.254Z,12.50
2022-09-26T07:36:09.813Z,12.65
2022-09-26T07:38:36.802Z,12.58
2022-09-26T07:41:03.815Z,12.64
2022-09-26T07:44:04.603Z,12.90
2022-09-26T07:46:36.144Z,12.90
2022-09-26T07:49:21.286Z,13.15
2022-09-26T07:51:49.672Z,12.97
2022-09-26T07:54:18.172Z,12.84
2022-09-26T07:56:45.846Z,12.82
2022-09-26T07:59:12.651Z,12.82
2022-09-26T08:01:40.124Z,12.71
2022-09-26T08:04:12.366Z,12.50
2022-09-26T08:06:39.247Z,12.64
2022-09-26T08:09:06.073Z,12.69
2022-09-26T08:11:33.016Z,12.61
2022-09-26T08:14:01.739Z,12.69
2022-09-26T08:16:29.622Z,12.43
2022-09-26T08:18:58.645Z,12.47
2022-09-26T08:21:25.504Z,12.37
2022-09-26T08:23:53.627Z,12.21
2022-09-26T08:26:24.004Z,12.16
2022-09-26T08:28:50.937Z,12.26
2022-09-26T08:31:17.996Z,12.37
2022-09-26T08:33:44.967Z,12.35
2022-09-26T08:36:14.237Z,12.31
2022-09-26T08:38:42.399Z,12.54
2022-09-26T08:41:46.231Z,12.34
2022-09-26T08:44:49.214Z,12.18
2022-09-26T08:47:49.215Z,12.22
2022-09-26T08:50:32.893Z,12.32
2022-09-26T08:53:05.568Z,12.38
2022-09-26T08:55:41.095Z,12.25
2022-09-26T08:58:31.887Z,12.08
2022-09-26T09:01:02.858Z,12.29
2022-09-26T09:03:33.131Z,12.37
2022-09-26T09:06:14.775Z,12.48
2022-09-26T09:08:51.336Z,12.51
2022-09-26T09:11:17.956Z,12.32
2022-09-26T09:14:04.454Z,12.62
2022-09-26T09:16:55.847Z,13.08
2022-09-26T09:19:34.564Z,13.31
2022-09-26T09:22:29.712Z,13.82
2022-09-26T09:24:59.762Z,13.69
2022-09-26T09:27:54.994Z,13.55
2022-09-26T09:30:34.239Z,13.55
2022-09-26T09:33:06.487Z,13.87
2022-09-26T09:35:45.877Z,13.62
2022-09-26T09:38:20.440Z,13.90
2022-09-26T09:41:11.382Z,13.80
2022-09-26T09:43:51.892Z,13.67
2022-09-26T09:46:25.176Z,13.85
2022-09-26T09:49:07.699Z,13.76
2022-09-26T09:51:53.150Z,14.04
2022-09-26T09:54:43.881Z,14.04
2022-09-26T09:57:39.337Z,14.03
2022-09-26T10:00:19.438Z,13.84
2022-09-26T10:03:15.764Z,14.03
2022-09-26T10:05:47.935Z,14.14
2022-09-26T10:08:22.633Z,14.03
2022-09-26T10:11:08.485Z,13.82
2022-09-26T10:13:37.619Z,13.77
2022-09-26T10:16:09.750Z,13.99
2022-09-26T10:19:05.612Z,13.88
2022-09-26T10:21:39.412Z,13.87
2022-09-26T10:24:22.343Z,13.99
2022-09-26T10:26:50.327Z,14.11
2022-09-26T10:29:22.800Z,14.08
2022-09-26T10:31:56.569Z,13.87
2022-09-26T10:34:27.949Z,13.95
2022-09-26T10:36:56.227Z,13.76
2022-09-26T10:39:44.465Z,13.77
2022-09-26T10:42:23.058Z,13.73
2022-09-26T10:44:50.802Z,13.64
2022-09-26T10:47:23.010Z,13.82
2022-09-26T10:49:59.200Z,13.79
2022-09-26T10:52:40.657Z,13.97
2022-09-26T10:55:10.884Z,13.97
2022-09-26T10:57:51.408Z,13.82
2022-09-26T11:00:43.195Z,13.73
2022-09-26T11:03:23.276Z,13.80
2022-09-26T11:05:59.826Z,13.78
2022-09-26T11:08:32.603Z,13.92
2022-09-26T11:11:06.233Z,13.87
2022-09-26T11:13:47.966Z,13.99
2022-09-26T11:16:16.261Z,13.92
2022-09-26T11:18:46.682Z,13.93
2022-09-26T11:21:29.196Z,14.08
2022-09-26T11:30:21.046Z,14.11
2022-09-26T11:32:56.551Z,14.21
2022-09-26T11:35:58.601Z,14.21
2022-09-26T11:41:44.045Z,14.30
2022-09-26T11:44:35.749Z,14.23
2022-09-26T11:47:24.232Z,14.09
2022-09-26T11:49:53.915Z,13.96
2022-09-26T11:52:46.825Z,14.05
2022-09-26T11:55:31.136Z,14.14
2022-09-26T11:58:14.895Z,13.89
2022-09-26T12:01:28.367Z,13.85
2022-09-26T12:04:26.682Z,13.51
2022-09-26T12:07:12.421Z,13.65
2022-09-26T12:10:03.569Z,13.63
2022-09-26T12:12:47.355Z,13.79
2022-09-26T12:15:32.942Z,13.72
2022-09-26T12:18:18.871Z,13.67
2022-09-26T12:20:53.362Z,13.58
2022-09-26T12:23:29.292Z,13.62
2022-09-26T12:26:17.057Z,13.74
2022-09-26T12:29:02.552Z,13.77
2022-09-26T12:32:00.452Z,13.64
2022-09-26T12:34:48.898Z,13.68
2022-09-26T12:37:33.742Z,13.60
2022-09-26T12:40:20.891Z,13.54
2022-09-26T12:43:13.970Z,13.77
2022-09-26T12:46:01.349Z,13.75
2022-09-26T12:49:06.819Z,13.64
2022-09-26T12:51:52.054Z,13.68
2022-09-26T12:54:33.960Z,13.58
2022-09-26T12:57:09.131Z,13.50
2022-09-26T13:00:00.129Z,13.42
2022-09-26T13:03:02.946Z,13.37
2022-09-26T13:05:38.062Z,13.33
2022-09-26T13:08:31.024Z,13.21
2022-09-26T13:11:18.112Z,13.17
2022-09-26T13:14:12.375Z,13.21
2022-09-26T13:17:06.196Z,13.17
2022-09-26T13:19:35.557Z,13.11
2022-09-26T13:22:21.305Z,13.07
2022-09-26T13:25:08.335Z,12.98
2022-09-26T13:27:46.470Z,12.93
2022-09-26T13:30:24.513Z,12.90
2022-09-26T13:33:00.433Z,12.96
2022-09-26T13:35:29.826Z,12.96
2022-09-26T13:38:22.302Z,12.92
2022-09-26T13:41:23.124Z,12.90
2022-09-26T13:44:06.429Z,12.87
2022-09-26T13:46:59.237Z,12.88
2022-09-26T13:49:39.496Z,12.80
2022-09-26T13:52:27.671Z,12.72
2022-09-26T13:55:11.219Z,12.72
2022-09-26T13:58:03.959Z,12.67
2022-09-26T14:00:31.280Z,12.69
2022-09-26T14:03:09.473Z,12.82
2022-09-26T14:05:42.362Z,12.74
2022-09-26T14:08:43.103Z,12.49
2022-09-26T14:11:19.189Z,12.70
2022-09-26T14:14:17.980Z,12.56
2022-09-26T14:16:49.152Z,12.69
2022-09-26T14:19:39.636Z,12.74
2022-09-26T14:22:18.903Z,12.65
2022-09-26T14:24:47.739Z,12.52
2022-09-26T14:27:18.878Z,12.54
2022-09-26T14:29:58.909Z,12.59
2022-09-26T14:32:41.682Z,12.52
2022-09-26T14:35:28.209Z,12.59
2022-09-26T14:38:08.116Z,12.54
2022-09-26T14:40:37.919Z,12.67
2022-09-26T14:43:19.169Z,12.60
2022-09-26T14:45:47.957Z,12.54
2022-09-26T14:48:28.615Z,12.57
2022-09-26T14:51:25.067Z,12.54
2022-09-26T14:54:16.302Z,12.48
2022-09-26T14:56:47.206Z,12.50
2022-09-26T14:59:20.794Z,12.43
2022-09-26T15:01:47.857Z,12.38
2022-09-26T15:04:27.756Z,12.47
2022-09-26T15:06:57.223Z,12.46
2022-09-26T15:09:37.171Z,12.57
2022-09-26T15:12:22.669Z,12.62
2022-09-26T15:15:14.224Z,12.51
2022-09-26T15:17:48.399Z,12.58
2022-09-26T15:20:19.505Z,12.56
2022-09-26T15:22:47.854Z,12.52
2022-09-26T15:25:30.977Z,12.53
2022-09-26T15:27:59.632Z,12.42
2022-09-26T15:30:36.057Z,12.52
2022-09-26T15:33:04.068Z,12.46
2022-09-26T15:35:32.536Z,12.46
2022-09-26T15:38:01.252Z,12.44
2022-09-26T15:40:30.058Z,12.32
2022-09-26T15:43:03.034Z,12.27
2022-09-26T15:45:55.450Z,12.29
2022-09-26T15:48:25.474Z,12.24
2022-09-26T15:51:15.458Z,12.19
2022-09-26T15:53:50.019Z,12.26
2022-09-26T15:56:26.299Z,12.29
2022-09-26T15:59:00.882Z,12.23
2022-09-26T16:01:31.284Z,12.21
2022-09-26T16:04:01.068Z,12.19
2022-09-26T16:06:41.863Z,12.17
2022-09-26T16:09:08.571Z,12.27
2022-09-26T16:11:56.345Z,12.04
2022-09-26T16:14:32.241Z,12.23
2022-09-26T16:17:32.575Z,12.21
2022-09-26T16:20:05.442Z,12.09
2022-09-26T16:22:45.850Z,12.11
2022-09-26T16:25:15.612Z,11.99
2022-09-26T16:27:42.944Z,12.00
2022-09-26T16:30:23.627Z,11.91
2022-09-26T16:32:55.252Z,12.00
2022-09-26T16:35:29.487Z,11.93
2022-09-26T16:38:00.599Z,11.84
2022-09-26T16:40:30.207Z,11.90
2022-09-26T16:43:14.429Z,11.90
2022-09-26T16:45:50.018Z,11.82
2022-09-26T16:48:52.402Z,11.86
2022-09-26T16:51:35.284Z,11.80
2022-09-26T16:54:20.614Z,11.89
2022-09-26T16:56:51.629Z,11.82
2022-09-26T16:59:26.816Z,11.81
2022-09-26T17:01:56.467Z,11.83
2022-09-26T17:04:32.589Z,11.85
2022-09-26T17:07:01.327Z,11.71
2022-09-26T17:09:30.815Z,11.73
2022-09-26T17:12:03.909Z,11.76
2022-09-26T17:14:40.109Z,11.76
2022-09-26T17:17:14.256Z,11.77
2022-09-26T17:19:43.562Z,11.73
2022-09-26T17:22:14.735Z,11.78
2022-09-26T17:24:42.787Z,11.72
2022-09-26T17:27:22.784Z,11.72
2022-09-26T17:29:52.061Z,11.75
2022-09-26T17:32:28.313Z,11.77
2022-09-26T17:35:03.424Z,11.75
2022-09-26T17:37:31.660Z,11.77
2022-09-26T17:39:58.448Z,11.77
2022-09-26T17:42:25.600Z,11.78
2022-09-26T17:44:52.490Z,11.76
2022-09-26T17:50:25.563Z,11.77
2022-09-26T17:52:53.735Z,11.79
2022-09-26T17:55:22.962Z,11.71
2022-09-26T17:57:50.586Z,11.80
2022-09-26T18:00:19.448Z,11.78
2022-09-26T18:02:49.414Z,11.81
2022-09-26T18:05:22.662Z,11.81
2022-09-26T18:07:53.773Z,11.75
2022-09-26T18:10:23.809Z,11.78
2022-09-26T18:12:57.328Z,11.70
2022-09-26T18:15:25.677Z,11.77
2022-09-26T18:17:53.305Z,11.84
2022-09-26T18:20:23.727Z,11.78
2022-09-26T18:22:52.303Z,11.88
2022-09-26T18:25:22.994Z,11.93
2022-09-26T18:27:53.639Z,11.81
2022-09-26T18:30:22.621Z,11.85
2022-09-26T18:32:56.635Z,11.81
2022-09-26T18:35:28.017Z,11.82
2022-09-26T18:37:56.447Z,11.75
2022-09-26T18:40:26.627Z,11.87
2022-09-26T18:42:55.269Z,11.76
2022-09-26T18:45:34.542Z,11.93
2022-09-26T18:48:07.719Z,11.82
2022-09-26T18:50:37.502Z,11.73
2022-09-26T18:53:11.205Z,11.77
2022-09-26T18:55:56.461Z,11.78
2022-09-26T18:58:27.742Z,11.87
2022-09-26T19:00:57.167Z,11.85
2022-09-26T19:03:27.159Z,11.82
2022-09-26T19:06:02.394Z,11.86
2022-09-26T19:08:33.745Z,11.85
2022-09-26T19:11:14.835Z,11.95
2022-09-26T19:13:48.350Z,11.90
2022-09-26T19:16:17.366Z,11.85
2022-09-26T19:18:45.484Z,11.98
2022-09-26T19:21:24.152Z,11.82
2022-09-26T19:23:52.212Z,11.76
2022-09-26T19:26:41.665Z,11.85
2022-09-26T19:29:15.526Z,11.88
2022-09-26T19:31:43.714Z,11.94
2022-09-26T19:34:15.234Z,11.97
2022-09-26T19:36:42.411Z,11.87
2022-09-26T19:39:14.030Z,11.91
2022-09-26T19:41:41.077Z,11.91
2022-09-26T19:44:08.043Z,11.90
2022-09-26T19:46:37.547Z,11.89
2022-09-26T19:49:18.282Z,11.86
2022-09-26T19:51:45.929Z,11.93
2022-09-26T19:54:19.575Z,11.95
2022-09-26T19:56:47.987Z,11.95
2022-09-26T19:59:17.352Z,11.91
2022-09-26T20:01:46.577Z,12.02
2022-09-26T20:04:19.208Z,11.96
2022-09-26T20:06:47.371Z,11.98
2022-09-26T20:09:17.418Z,11.93
2022-09-26T20:11:45.880Z,11.99
2022-09-26T20:14:26.278Z,11.93
2022-09-26T20:16:56.933Z,11.92
2022-09-26T20:19:31.825Z,11.92
2022-09-26T20:22:02.113Z,11.96
2022-09-26T20:24:32.017Z,12.06
2022-09-26T20:27:02.161Z,12.00
2022-09-26T20:29:30.056Z,11.91
2022-09-26T20:31:58.216Z,11.89
2022-09-26T20:34:25.802Z,12.08
2022-09-26T20:36:53.555Z,12.00
2022-09-26T20:39:26.880Z,12.05
2022-09-26T20:41:56.726Z,12.09
2022-09-26T20:44:28.859Z,12.13
2022-09-26T20:47:02.242Z,12.03
2022-09-26T20:49:44.350Z,12.01
2022-09-26T20:52:22.078Z,12.06
2022-09-26T20:54:50.102Z,12.06
2022-09-26T20:57:19.918Z,11.99
2022-09-26T20:59:48.206Z,11.96
2022-09-26T21:02:30.190Z,11.99
2022-09-26T21:05:03.156Z,12.05
2022-09-26T21:07:33.388Z,12.03
2022-09-26T21:10:00.648Z,12.16
2022-09-26T21:12:27.820Z,12.02
2022-09-26T21:14:54.583Z,12.02
2022-09-26T21:17:27.398Z,11.98
2022-09-26T21:19:56.011Z,11.96
2022-09-26T21:22:27.562Z,12.16
2022-09-26T21:24:55.880Z,12.16
2022-09-26T21:27:24.148Z,12.16
2022-09-26T21:29:53.416Z,12.06
2022-09-26T21:32:23.310Z,12.07
2022-09-26T21:35:04.107Z,12.04
2022-09-26T21:37:31.677Z,12.11
2022-09-26T21:39:59.271Z,12.16
2022-09-26T21:42:26.357Z,12.13
2022-09-26T21:44:59.680Z,12.14
2022-09-26T21:47:28.691Z,12.24
2022-09-26T21:49:57.822Z,12.20
2022-09-26T21:52:42.011Z,12.16
2022-09-26T21:55:16.426Z,12.02
2022-09-26T21:57:47.613Z,12.13
2022-09-26T22:00:15.762Z,12.28
2022-09-26T22:02:43.809Z,12.24
2022-09-26T22:05:12.283Z,12.10
2022-09-26T22:07:41.045Z,12.20
2022-09-26T22:10:11.086Z,12.11
2022-09-26T22:12:38.826Z,12.10
2022-09-26T22:15:07.181Z,12.23
2022-09-26T22:17:34.767Z,12.13
2022-09-26T22:20:02.175Z,12.04
2022-09-26T22:22:29.909Z,12.12
2022-09-26T22:25:02.445Z,12.15
2022-09-26T22:27:30.259Z,12.13
2022-09-26T22:29:58.167Z,12.18
2022-09-26T22:36:13.658Z,12.01
2022-09-26T22:38:40.876Z,12.04
2022-09-26T22:41:08.424Z,12.05
2022-09-26T22:43:36.929Z,12.13
2022-09-26T22:46:15.059Z,12.06
2022-09-26T22:48:46.224Z,11.94
2022-09-26T22:51:14.729Z,11.99
2022-09-26T22:53:42.520Z,11.93
2022-09-26T22:56:12.867Z,11.97
2022-09-26T22:58:43.174Z,11.89
2022-09-26T23:01:18.213Z,11.94
2022-09-26T23:03:46.026Z,11.99
2022-09-26T23:06:14.683Z,12.01
2022-09-26T23:08:42.878Z,11.87
2022-09-26T23:11:13.259Z,11.88
2022-09-26T23:13:42.545Z,11.99
2022-09-26T23:16:17.920Z,12.02
2022-09-26T23:18:45.935Z,12.00
2022-09-26T23:21:13.910Z,12.05
2022-09-26T23:23:44.113Z,11.90
2022-09-26T23:26:17.261Z,11.95
2022-09-26T23:28:45.280Z,12.02
2022-09-26T23:31:13.182Z,12.12
2022-09-26T23:33:41.200Z,12.03
2022-09-26T23:36:09.158Z,12.12
2022-09-26T23:38:39.166Z,12.06
2022-09-26T23:41:08.141Z,12.13
2022-09-26T23:43:35.708Z,12.07
2022-09-26T23:46:03.460Z,12.06
2022-09-26T23:48:30.822Z,12.05
2022-09-26T23:50:58.334Z,11.99
2022-09-26T23:53:25.627Z,12.07
2022-09-26T23:55:53.724Z,12.05
2022-09-26T23:58:21.025Z,11.96
